createdAt,value
2019-03-22T00:00:31.942Z,101471.35
2019-03-22T00:03:00.444Z,101467.47
2019-03-22T00:05:28.993Z,101462.28
2019-03-22T00:07:57.650Z,101462.33
2019-03-22T00:10:26.119Z,101454.55
2019-03-22T00:12:54.587Z,101452.86
2019-03-22T00:15:23.118Z,101457.23
2019-03-22T00:17:51.613Z,101457.23
2019-03-22T00:20:20.078Z,101455.06
2019-03-22T00:22:48.543Z,101448.09
2019-03-22T00:25:17.027Z,101449.41
2019-03-22T00:27:45.535Z,101440.23
2019-03-22T00:30:14.584Z,101452.88
2019-03-22T00:32:43.058Z,101446.30
2019-03-22T00:35:12.207Z,101448.48
2019-03-22T00:37:40.704Z,101437.95
2019-03-22T00:40:10.521Z,101450.19
2019-03-22T00:42:39.154Z,101444.92
2019-03-22T00:45:09.272Z,101454.94
2019-03-22T00:47:37.919Z,101456.19
2019-03-22T00:50:08.243Z,101450.98
2019-03-22T00:52:36.733Z,101456.28
2019-03-22T00:55:06.358Z,101448.48
2019-03-22T00:57:34.839Z,101451.11
2019-03-22T01:00:04.856Z,101449.34
2019-03-22T01:02:33.346Z,101448.89
2019-03-22T01:05:01.872Z,101449.38
2019-03-22T01:07:30.339Z,101441.98
2019-03-22T01:09:58.817Z,101431.54
2019-03-22T01:12:27.283Z,101445.14
2019-03-22T01:14:55.793Z,101435.52
2019-03-22T01:17:24.268Z,101422.03
2019-03-22T01:19:52.793Z,101422.92
2019-03-22T01:22:21.267Z,101422.92
2019-03-22T01:24:49.765Z,101422.06
2019-03-22T01:27:18.226Z,101423.37
2019-03-22T01:29:46.709Z,101420.76
2019-03-22T01:32:15.176Z,101420.76
2019-03-22T01:34:43.681Z,101416.82
2019-03-22T01:37:12.149Z,101416.83
2019-03-22T01:39:40.627Z,101422.97
2019-03-22T01:42:10.097Z,101426.92
2019-03-22T01:44:38.610Z,101425.19
2019-03-22T01:47:07.111Z,101427.36
2019-03-22T01:49:35.658Z,101422.98
2019-03-22T01:52:04.272Z,101433.06
2019-03-22T01:54:32.781Z,101429.56
2019-03-22T01:57:03.161Z,101432.64
2019-03-22T01:59:31.656Z,101429.61
2019-03-22T02:02:00.134Z,101432.66
2019-03-22T02:04:28.824Z,101430.48
2019-03-22T02:06:57.390Z,101425.71
2019-03-22T02:09:25.861Z,101425.26
2019-03-22T02:11:54.365Z,101421.77
2019-03-22T02:14:22.834Z,101430.08
2019-03-22T02:16:51.326Z,101425.72
2019-03-22T02:19:19.803Z,101427.48
2019-03-22T02:21:48.496Z,101421.77
2019-03-22T02:24:16.969Z,101421.80
2019-03-22T02:26:45.559Z,101417.88
2019-03-22T02:29:14.031Z,101409.56
2019-03-22T02:31:42.546Z,101408.23
2019-03-22T02:34:11.010Z,101399.05
2019-03-22T02:36:39.501Z,101401.24
2019-03-22T02:39:07.976Z,101394.25
2019-03-22T02:41:36.494Z,101399.06
2019-03-22T02:44:05.035Z,101394.27
2019-03-22T02:46:33.584Z,101392.52
2019-03-22T02:49:02.055Z,101391.20
2019-03-22T02:51:30.618Z,101392.95
2019-03-22T02:53:59.079Z,101381.59
2019-03-22T02:56:27.576Z,101387.27
2019-03-22T02:58:59.184Z,101387.27
2019-03-22T03:01:26.374Z,101390.34
2019-03-22T03:03:54.842Z,101393.84
2019-03-22T03:06:23.409Z,101401.71
2019-03-22T03:08:51.874Z,101402.15
2019-03-22T03:11:20.466Z,101402.59
2019-03-22T03:13:49.904Z,101406.52
2019-03-22T03:16:18.390Z,101412.64
2019-03-22T03:18:46.860Z,101400.84
2019-03-22T03:21:15.389Z,101401.72
2019-03-22T03:23:43.887Z,101394.72
2019-03-22T03:26:12.376Z,101393.84
2019-03-22T03:28:40.874Z,101398.63
2019-03-22T03:31:09.369Z,101403.00
2019-03-22T03:33:37.834Z,101407.81
2019-03-22T03:36:06.385Z,101407.81
2019-03-22T03:38:34.881Z,101416.99
2019-03-22T03:41:03.400Z,101412.19
2019-03-22T03:43:31.877Z,101412.19
2019-03-22T03:46:01.362Z,101409.56
2019-03-22T03:48:29.836Z,101417.44
2019-03-22T03:50:58.413Z,101426.63
2019-03-22T03:53:26.946Z,101420.94
2019-03-22T03:55:55.415Z,101400.81
2019-03-22T03:58:23.972Z,101405.19
2019-03-22T04:00:52.437Z,101408.25
2019-03-22T04:03:20.957Z,101413.06
2019-03-22T04:05:49.450Z,101413.06
2019-03-22T04:08:17.945Z,101413.94
2019-03-22T04:10:46.486Z,101414.81
2019-03-22T04:13:14.992Z,101425.30
2019-03-22T04:15:43.597Z,101421.36
2019-03-22T04:18:12.188Z,101413.93
2019-03-22T04:20:40.662Z,101406.94
2019-03-22T04:23:09.144Z,101408.25
2019-03-22T04:25:37.695Z,101406.93
2019-03-22T04:28:06.228Z,101402.56
2019-03-22T04:30:34.776Z,101406.09
2019-03-22T04:33:06.360Z,101410.88
2019-03-22T04:35:33.550Z,101413.05
2019-03-22T04:38:02.032Z,101413.09
2019-03-22T04:40:30.883Z,101421.36
2019-03-22T04:42:59.553Z,101424.02
2019-03-22T04:45:31.065Z,101421.83
2019-03-22T04:48:08.309Z,101413.95
2019-03-22T04:50:39.843Z,101416.15
2019-03-22T04:53:11.614Z,101417.89
2019-03-22T04:55:43.130Z,101416.59
2019-03-22T04:58:14.546Z,101426.20
2019-03-22T05:00:43.562Z,101437.58
2019-03-22T05:03:13.324Z,101433.64
2019-03-22T05:05:45.114Z,101437.98
2019-03-22T05:08:16.243Z,101442.36
2019-03-22T05:10:45.544Z,101437.55
2019-03-22T05:13:17.505Z,101435.80
2019-03-22T05:15:46.414Z,101432.75
2019-03-22T05:18:15.441Z,101436.69
2019-03-22T05:20:46.456Z,101446.30
2019-03-22T05:23:18.225Z,101453.75
2019-03-22T05:25:48.825Z,101461.18
2019-03-22T05:28:20.709Z,101461.59
2019-03-22T05:31:01.135Z,101464.22
2019-03-22T05:33:29.658Z,101473.41
2019-03-22T05:35:58.130Z,101475.16
2019-03-22T05:38:26.646Z,101482.13
2019-03-22T05:40:55.122Z,101491.77
2019-03-22T05:43:23.687Z,101489.98
2019-03-22T05:45:52.158Z,101491.29
2019-03-22T05:48:21.007Z,101493.04
2019-03-22T05:50:49.472Z,101496.54
2019-03-22T05:53:17.992Z,101504.83
2019-03-22T05:55:46.456Z,101508.77
2019-03-22T05:58:14.973Z,101511.39
2019-03-22T06:00:43.473Z,101508.32
2019-03-22T06:03:11.945Z,101509.20
2019-03-22T06:05:40.418Z,101512.66
2019-03-22T06:08:09.834Z,101524.04
2019-03-22T06:10:38.311Z,101524.91
2019-03-22T06:13:06.788Z,101527.97
2019-03-22T06:15:35.288Z,101518.73
2019-03-22T06:18:04.103Z,101515.20
2019-03-22T06:20:32.593Z,101523.03
2019-03-22T06:23:01.190Z,101517.70
2019-03-22T06:25:29.722Z,101528.19
2019-03-22T06:27:58.185Z,101533.38
2019-03-22T06:30:26.713Z,101536.42
2019-03-22T06:32:55.220Z,101534.16
2019-03-22T06:35:24.731Z,101541.14
2019-03-22T06:37:53.192Z,101545.46
2019-03-22T06:40:21.675Z,101546.31
2019-03-22T06:42:50.146Z,101544.53
2019-03-22T06:45:18.648Z,101552.81
2019-03-22T06:47:47.119Z,101559.79
2019-03-22T06:50:15.594Z,101554.93
2019-03-22T06:52:44.398Z,101547.39
2019-03-22T06:55:13.146Z,101553.09
2019-03-22T06:57:41.613Z,101564.50
2019-03-22T07:00:13.010Z,101554.77
2019-03-22T07:02:41.452Z,101554.74
2019-03-22T07:05:09.986Z,101551.61
2019-03-22T07:07:38.526Z,101549.77
2019-03-22T07:10:08.065Z,101548.40
2019-03-22T07:12:36.525Z,101554.45
2019-03-22T07:15:08.713Z,101557.92
2019-03-22T07:17:37.178Z,101554.38
2019-03-22T07:20:09.041Z,101552.60
2019-03-22T07:22:37.518Z,101555.16
2019-03-22T07:25:08.293Z,101559.95
2019-03-22T07:27:37.733Z,101559.44
2019-03-22T07:30:17.874Z,101564.18
2019-03-22T07:32:39.040Z,101564.58
2019-03-22T07:35:07.601Z,101562.80
2019-03-22T07:37:36.073Z,101560.14
2019-03-22T07:40:08.923Z,101563.11
2019-03-22T07:42:37.484Z,101563.51
2019-03-22T07:45:07.601Z,101569.19
2019-03-22T07:47:39.156Z,101568.66
2019-03-22T07:50:09.924Z,101561.56
2019-03-22T07:52:38.659Z,101567.66
2019-03-22T07:55:07.594Z,101564.39
2019-03-22T07:57:37.073Z,101562.04
2019-03-22T08:00:11.550Z,101566.28
2019-03-22T08:02:40.015Z,101567.17
2019-03-22T08:05:08.850Z,101557.39
2019-03-22T08:07:37.314Z,101557.25
2019-03-22T08:10:07.818Z,101555.71
2019-03-22T08:12:36.264Z,101555.07
2019-03-22T08:15:08.353Z,101551.06
2019-03-22T08:17:36.724Z,101547.61
2019-03-22T08:20:08.117Z,101553.66
2019-03-22T08:22:36.731Z,101552.88
2019-03-22T08:25:05.415Z,101555.59
2019-03-22T08:27:33.841Z,101550.17
2019-03-22T08:30:02.362Z,101563.66
2019-03-22T08:32:30.813Z,101571.52
2019-03-22T08:34:59.295Z,101561.84
2019-03-22T08:37:27.841Z,101566.14
2019-03-22T08:39:56.302Z,101569.13
2019-03-22T08:42:24.852Z,101567.11
2019-03-22T08:44:54.253Z,101570.62
2019-03-22T08:47:33.179Z,101568.70
2019-03-22T08:49:53.933Z,101562.17
2019-03-22T08:52:22.444Z,101561.50
2019-03-22T08:54:50.934Z,101555.96
2019-03-22T08:57:19.374Z,101565.64
2019-03-22T08:59:47.835Z,101566.75
2019-03-22T09:02:16.342Z,101565.35
2019-03-22T09:04:44.797Z,101567.47
2019-03-22T09:07:13.326Z,101562.13
2019-03-22T09:09:42.066Z,101556.77
2019-03-22T09:12:10.736Z,101555.00
2019-03-22T09:14:39.198Z,101560.66
2019-03-22T09:17:07.769Z,101555.73
2019-03-22T09:19:36.269Z,101545.95
2019-03-22T09:22:04.883Z,101547.97
2019-03-22T09:24:39.080Z,101558.95
2019-03-22T09:27:03.613Z,101554.02
2019-03-22T09:29:32.034Z,101555.59
2019-03-22T09:32:00.525Z,101562.99
2019-03-22T09:34:33.860Z,101558.48
2019-03-22T09:36:59.806Z,101557.48
2019-03-22T09:39:28.250Z,101552.03
2019-03-22T09:41:56.752Z,101543.02
2019-03-22T09:44:28.073Z,101550.65
2019-03-22T09:46:55.446Z,101547.48
2019-03-22T09:49:23.940Z,101556.81
2019-03-22T09:51:55.113Z,101547.55
2019-03-22T09:54:22.618Z,101539.95
2019-03-22T09:56:51.112Z,101542.17
2019-03-22T09:59:19.682Z,101554.30
2019-03-22T10:01:49.249Z,101564.89
2019-03-22T10:04:17.714Z,101585.02
2019-03-22T10:06:46.196Z,101584.33
2019-03-22T10:09:15.664Z,101575.75
2019-03-22T10:11:44.219Z,101564.38
2019-03-22T10:14:12.687Z,101558.72
2019-03-22T10:16:41.193Z,101557.33
2019-03-22T10:19:09.634Z,101560.73
2019-03-22T10:21:38.147Z,101567.33
2019-03-22T10:24:06.617Z,101569.64
2019-03-22T10:26:35.178Z,101568.01
2019-03-22T10:29:06.792Z,101565.24
2019-03-22T10:31:37.559Z,101564.43
2019-03-22T10:34:04.315Z,101566.19
2019-03-22T10:36:32.766Z,101563.14
2019-03-22T10:39:01.298Z,101558.25
2019-03-22T10:41:29.813Z,101557.23
2019-03-22T10:43:58.416Z,101558.47
2019-03-22T10:46:26.910Z,101561.88
2019-03-22T10:48:55.395Z,101573.66
2019-03-22T10:51:23.852Z,101567.34
2019-03-22T10:53:52.430Z,101567.34
2019-03-22T10:56:20.965Z,101564.86
2019-03-22T10:58:49.455Z,101566.09
2019-03-22T11:01:17.918Z,101560.92
2019-03-22T11:03:46.635Z,101561.40
2019-03-22T11:06:25.503Z,101562.67
2019-03-22T11:08:45.634Z,101557.88
2019-03-22T11:11:14.099Z,101563.91
2019-03-22T11:13:43.612Z,101567.54
2019-03-22T11:16:12.088Z,101577.53
2019-03-22T11:18:40.586Z,101580.57
2019-03-22T11:21:09.057Z,101568.19
2019-03-22T11:23:37.643Z,101558.70
2019-03-22T11:26:06.254Z,101552.73
2019-03-22T11:28:34.762Z,101551.55
2019-03-22T11:31:04.960Z,101560.02
2019-03-22T11:33:33.442Z,101554.09
2019-03-22T11:36:01.911Z,101561.25
2019-03-22T11:38:30.425Z,101558.66
2019-03-22T11:41:00.011Z,101553.37
2019-03-22T11:43:28.531Z,101560.67
2019-03-22T11:45:57.064Z,101554.30
2019-03-22T11:48:25.704Z,101540.70
2019-03-22T11:50:54.239Z,101538.95
2019-03-22T11:53:22.826Z,101529.64
2019-03-22T11:55:51.363Z,101522.97
2019-03-22T11:58:19.914Z,101532.60
2019-03-22T12:00:48.394Z,101532.16
2019-03-22T12:03:16.973Z,101520.22
2019-03-22T12:05:45.524Z,101509.64
2019-03-22T12:08:14.143Z,101507.63
2019-03-22T12:10:42.668Z,101511.81
2019-03-22T12:13:20.878Z,101513.08
2019-03-22T12:15:49.499Z,101507.31
2019-03-22T12:18:18.073Z,101500.30
2019-03-22T12:20:48.271Z,101490.13
2019-03-22T12:23:16.921Z,101487.73
2019-03-22T12:25:45.529Z,101492.97
2019-03-22T12:28:14.031Z,101483.88
2019-03-22T12:30:42.523Z,101481.27
2019-03-22T12:33:11.069Z,101481.47
2019-03-22T12:35:39.615Z,101484.37
2019-03-22T12:38:08.081Z,101484.09
2019-03-22T12:40:36.761Z,101476.11
2019-03-22T12:43:05.562Z,101468.40
2019-03-22T12:45:34.217Z,101471.13
2019-03-22T12:48:02.767Z,101468.78
2019-03-22T12:50:33.105Z,101466.34
2019-03-22T12:53:01.575Z,101468.33
2019-03-22T12:55:32.180Z,101471.29
2019-03-22T12:58:00.772Z,101458.48
2019-03-22T13:00:29.831Z,101468.19
2019-03-22T13:02:58.662Z,101460.37
2019-03-22T13:05:27.393Z,101455.22
2019-03-22T13:07:56.489Z,101464.35
2019-03-22T13:10:26.886Z,101463.94
2019-03-22T13:12:55.360Z,101462.14
2019-03-22T13:15:23.889Z,101460.94
2019-03-22T13:17:52.347Z,101458.66
2019-03-22T13:20:21.998Z,101453.47
2019-03-22T13:22:50.633Z,101455.52
2019-03-22T13:25:21.104Z,101456.45
2019-03-22T13:27:49.754Z,101455.92
2019-03-22T13:30:21.427Z,101451.19
2019-03-22T13:32:52.283Z,101452.55
2019-03-22T13:35:20.266Z,101449.66
2019-03-22T13:37:49.734Z,101449.28
2019-03-22T13:40:18.261Z,101444.31
2019-03-22T13:42:46.725Z,101445.63
2019-03-22T13:45:16.379Z,101442.39
2019-03-22T13:47:44.919Z,101442.09
2019-03-22T13:50:13.874Z,101440.25
2019-03-22T13:52:42.540Z,101444.64
2019-03-22T13:55:11.357Z,101441.46
2019-03-22T13:57:39.825Z,101432.79
2019-03-22T14:00:11.101Z,101436.01
2019-03-22T14:02:39.752Z,101433.97
2019-03-22T14:05:09.158Z,101430.82
2019-03-22T14:07:37.701Z,101429.41
2019-03-22T14:10:11.325Z,101420.97
2019-03-22T14:12:42.877Z,101418.84
2019-03-22T14:15:11.554Z,101427.55
2019-03-22T14:17:40.027Z,101429.34
2019-03-22T14:20:11.537Z,101428.22
2019-03-22T14:22:38.828Z,101429.13
2019-03-22T14:25:07.466Z,101426.17
2019-03-22T14:27:35.937Z,101428.20
2019-03-22T14:30:06.802Z,101424.16
2019-03-22T14:32:35.338Z,101428.02
2019-03-22T14:35:05.362Z,101421.34
2019-03-22T14:37:33.835Z,101421.53
2019-03-22T14:40:02.416Z,101420.95
2019-03-22T14:42:30.888Z,101422.41
2019-03-22T14:44:59.351Z,101417.19
2019-03-22T14:47:27.917Z,101418.52
2019-03-22T14:49:56.395Z,101425.06
2019-03-22T14:52:24.912Z,101425.55
2019-03-22T14:54:54.400Z,101419.35
2019-03-22T14:57:22.891Z,101414.61
2019-03-22T14:59:58.899Z,101410.92
2019-03-22T15:02:21.635Z,101407.44
2019-03-22T15:04:50.111Z,101400.78
2019-03-22T15:07:19.898Z,101407.30
2019-03-22T15:09:48.795Z,101397.73
2019-03-22T15:12:17.394Z,101405.12
2019-03-22T15:14:47.656Z,101404.85
2019-03-22T15:17:34.069Z,101404.68
2019-03-22T15:20:20.984Z,101404.37
2019-03-22T15:23:07.419Z,101402.63
2019-03-22T15:25:49.223Z,101401.02
2019-03-22T15:28:25.262Z,101398.97
2019-03-22T15:30:56.378Z,101400.48
2019-03-22T15:33:34.402Z,101402.34
2019-03-22T15:36:01.190Z,101410.41
2019-03-22T15:38:47.577Z,101410.57
2019-03-22T15:41:16.146Z,101409.38
2019-03-22T15:43:44.703Z,101406.34
2019-03-22T15:46:13.251Z,101397.17
2019-03-22T15:48:41.764Z,101401.62
2019-03-22T15:51:10.356Z,101397.40
2019-03-22T15:53:39.962Z,101404.14
2019-03-22T15:56:08.442Z,101403.33
2019-03-22T15:58:37.164Z,101401.28
2019-03-22T16:01:05.810Z,101408.44
2019-03-22T16:03:43.884Z,101408.50
2019-03-22T16:06:04.703Z,101410.70
2019-03-22T16:08:33.256Z,101412.92
2019-03-22T16:11:01.804Z,101410.81
2019-03-22T16:13:30.308Z,101406.87
2019-03-22T16:15:58.779Z,101403.78
2019-03-22T16:18:27.339Z,101400.66
2019-03-22T16:20:59.989Z,101403.30
2019-03-22T16:23:26.087Z,101400.66
2019-03-22T16:25:54.582Z,101398.08
2019-03-22T16:28:23.071Z,101398.05
2019-03-22T16:30:51.560Z,101398.10
2019-03-22T16:33:20.036Z,101392.84
2019-03-22T16:35:48.554Z,101392.00
2019-03-22T16:38:17.037Z,101387.10
2019-03-22T16:40:45.581Z,101391.46
2019-03-22T16:43:14.049Z,101388.39
2019-03-22T16:45:44.279Z,101391.46
2019-03-22T16:48:12.813Z,101392.72
2019-03-22T16:50:41.390Z,101391.85
2019-03-22T16:53:09.929Z,101392.78
2019-03-22T16:55:38.557Z,101396.81
2019-03-22T16:58:07.416Z,101397.77
2019-03-22T17:00:36.281Z,101400.95
2019-03-22T17:03:06.366Z,101388.72
2019-03-22T17:05:36.049Z,101394.91
2019-03-22T17:08:04.758Z,101388.69
2019-03-22T17:10:33.340Z,101389.47
2019-03-22T17:13:01.821Z,101390.38
2019-03-22T17:15:30.411Z,101387.84
2019-03-22T17:17:58.884Z,101381.23
2019-03-22T17:20:27.571Z,101376.82
2019-03-22T17:22:56.049Z,101383.46
2019-03-22T17:25:24.669Z,101387.88
2019-03-22T17:27:53.154Z,101384.75
2019-03-22T17:30:21.842Z,101381.27
2019-03-22T17:32:50.366Z,101383.91
2019-03-22T17:35:18.852Z,101385.34
2019-03-22T17:37:47.314Z,101380.59
2019-03-22T17:40:16.086Z,101387.34
2019-03-22T17:42:44.630Z,101390.52
2019-03-22T17:45:15.667Z,101390.07
2019-03-22T17:47:44.196Z,101386.55
2019-03-22T17:50:14.218Z,101383.38
2019-03-22T17:52:42.685Z,101384.70
2019-03-22T17:55:12.135Z,101378.17
2019-03-22T17:57:40.687Z,101378.82
2019-03-22T18:00:15.926Z,101376.81
2019-03-22T18:02:44.392Z,101371.27
2019-03-22T18:05:13.354Z,101373.50
2019-03-22T18:07:41.923Z,101373.05
2019-03-22T18:10:11.897Z,101369.17
2019-03-22T18:12:40.543Z,101366.03
2019-03-22T18:15:13.532Z,101369.55
2019-03-22T18:17:42.004Z,101367.95
2019-03-22T18:20:13.400Z,101364.14
2019-03-22T18:22:41.863Z,101361.12
2019-03-22T18:25:11.379Z,101363.41
2019-03-22T18:27:40.004Z,101368.28
2019-03-22T18:30:16.163Z,101370.45
2019-03-22T18:32:44.672Z,101371.33
2019-03-22T18:35:13.378Z,101370.39
2019-03-22T18:37:41.867Z,101371.80
2019-03-22T18:40:15.453Z,101369.18
2019-03-22T18:42:43.937Z,101367.39
2019-03-22T18:45:13.900Z,101366.06
2019-03-22T18:47:42.920Z,101362.11
2019-03-22T18:50:12.620Z,101365.59
2019-03-22T18:52:41.233Z,101370.91
2019-03-22T18:55:10.477Z,101375.36
2019-03-22T18:57:38.930Z,101370.99
2019-03-22T19:00:10.352Z,101363.97
2019-03-22T19:02:38.887Z,101367.44
2019-03-22T19:05:08.475Z,101364.80
2019-03-22T19:07:37.088Z,101369.18
2019-03-22T19:10:11.433Z,101367.86
2019-03-22T19:12:40.817Z,101366.83
2019-03-22T19:15:13.930Z,101362.95
2019-03-22T19:17:42.666Z,101368.95
2019-03-22T19:20:13.175Z,101373.27
2019-03-22T19:22:41.859Z,101375.93
2019-03-22T19:25:10.753Z,101370.38
2019-03-22T19:27:39.346Z,101362.11
2019-03-22T19:30:11.102Z,101359.16
2019-03-22T19:32:39.586Z,101360.55
2019-03-22T19:35:09.694Z,101364.94
2019-03-22T19:37:39.136Z,101363.62
2019-03-22T19:40:09.747Z,101358.69
2019-03-22T19:42:38.298Z,101357.30
2019-03-22T19:45:10.263Z,101368.27
2019-03-22T19:47:38.856Z,101362.47
2019-03-22T19:50:09.455Z,101361.23
2019-03-22T19:52:38.002Z,101363.45
2019-03-22T19:55:10.229Z,101364.27
2019-03-22T19:57:38.900Z,101359.45
2019-03-22T20:00:14.952Z,101357.80
2019-03-22T20:02:49.474Z,101355.27
2019-03-22T20:05:29.396Z,101347.48
2019-03-22T20:07:57.995Z,101352.37
2019-03-22T20:10:26.461Z,101349.31
2019-03-22T20:12:55.157Z,101340.41
2019-03-22T20:15:23.626Z,101344.66
2019-03-22T20:17:52.176Z,101341.87
2019-03-22T20:20:20.723Z,101328.68
2019-03-22T20:22:49.237Z,101331.89
2019-03-22T20:25:17.697Z,101329.77
2019-03-22T20:27:46.250Z,101324.49
2019-03-22T20:30:16.550Z,101325.00
2019-03-22T20:32:45.144Z,101327.23
2019-03-22T20:35:16.621Z,101321.95
2019-03-22T20:37:44.418Z,101314.06
2019-03-22T20:40:17.967Z,101315.83
2019-03-22T20:42:46.898Z,101308.45
2019-03-22T20:45:23.973Z,101302.05
2019-03-22T20:47:49.764Z,101301.30
2019-03-22T20:50:18.262Z,101301.82
2019-03-22T20:52:46.748Z,101302.77
2019-03-22T20:55:15.296Z,101297.95
2019-03-22T20:57:45.382Z,101294.47
2019-03-22T21:00:16.029Z,101294.09
2019-03-22T21:02:44.598Z,101295.05
2019-03-22T21:05:13.302Z,101292.48
2019-03-22T21:07:41.835Z,101292.95
2019-03-22T21:10:11.079Z,101298.25
2019-03-22T21:12:39.685Z,101293.86
2019-03-22T21:15:12.481Z,101292.16
2019-03-22T21:17:41.042Z,101292.16
2019-03-22T21:20:10.670Z,101286.52
2019-03-22T21:22:39.131Z,101285.64
2019-03-22T21:25:09.374Z,101279.44
2019-03-22T21:27:37.921Z,101279.95
2019-03-22T21:30:11.438Z,101277.81
2019-03-22T21:32:45.307Z,101285.79
2019-03-22T21:35:21.557Z,101276.63
2019-03-22T21:37:40.942Z,101274.95
2019-03-22T21:40:11.255Z,101267.52
2019-03-22T21:42:39.718Z,101270.69
2019-03-22T21:45:09.802Z,101269.41
2019-03-22T21:47:38.411Z,101265.98
2019-03-22T21:50:08.564Z,101262.52
2019-03-22T21:52:38.165Z,101263.89
2019-03-22T21:55:07.917Z,101272.27
2019-03-22T21:57:36.443Z,101261.36
2019-03-22T22:00:12.258Z,101268.93
2019-03-22T22:02:40.801Z,101257.21
2019-03-22T22:05:09.662Z,101254.66
2019-03-22T22:07:38.612Z,101255.23
2019-03-22T22:10:08.866Z,101258.41
2019-03-22T22:12:37.601Z,101258.53
2019-03-22T22:15:13.423Z,101258.66
2019-03-22T22:17:42.168Z,101260.91
2019-03-22T22:20:11.432Z,101261.41
2019-03-22T22:22:40.290Z,101259.76
2019-03-22T22:25:10.636Z,101263.78
2019-03-22T22:27:39.106Z,101264.72
2019-03-22T22:30:10.102Z,101259.51
2019-03-22T22:32:38.732Z,101259.09
2019-03-22T22:35:10.220Z,101259.61
2019-03-22T22:37:38.840Z,101262.72
2019-03-22T22:40:10.139Z,101260.55
2019-03-22T22:42:40.516Z,101257.52
2019-03-22T22:45:10.587Z,101254.95
2019-03-22T22:47:39.205Z,101248.41
2019-03-22T22:50:09.810Z,101253.68
2019-03-22T22:52:38.359Z,101247.19
2019-03-22T22:55:07.198Z,101249.41
2019-03-22T22:57:35.835Z,101250.30
2019-03-22T23:00:13.741Z,101247.25
2019-03-22T23:02:42.583Z,101245.94
2019-03-22T23:05:11.345Z,101240.25
2019-03-22T23:07:40.114Z,101244.64
2019-03-22T23:10:09.287Z,101242.06
2019-03-22T23:12:37.835Z,101237.70
2019-03-22T23:15:07.393Z,101234.21
2019-03-22T23:17:36.088Z,101228.99
2019-03-22T23:20:06.583Z,101224.27
2019-03-22T23:22:35.137Z,101224.73
2019-03-22T23:25:04.239Z,101220.42
2019-03-22T23:27:32.755Z,101227.89
2019-03-22T23:30:01.239Z,101222.70
2019-03-22T23:32:29.840Z,101211.84
2019-03-22T23:34:59.221Z,101215.34
2019-03-22T23:37:27.897Z,101213.17
2019-03-22T23:39:56.401Z,101213.17
2019-03-22T23:42:24.875Z,101216.67
2019-03-22T23:44:53.564Z,101218.86
2019-03-22T23:47:22.029Z,101219.37
2019-03-22T23:49:50.590Z,101217.20
2019-03-22T23:52:20.131Z,101213.28
2019-03-22T23:54:48.775Z,101210.22
2019-03-22T23:57:17.250Z,101204.98
2019-03-22T23:59:45.794Z,101198.86
